createdAt,value
2018-07-28T00:00:02.585Z,23.20
2018-07-28T00:02:38.004Z,23.20
2018-07-28T00:05:13.311Z,23.10
2018-07-28T00:07:49.007Z,23.10
2018-07-28T00:10:24.409Z,23.10
2018-07-28T00:13:00.102Z,23.00
2018-07-28T00:15:35.470Z,23.00
2018-07-28T00:18:11.296Z,22.90
2018-07-28T00:20:47.062Z,22.90
2018-07-28T00:23:22.701Z,22.80
2018-07-28T00:26:03.360Z,22.90
2018-07-28T00:28:38.853Z,22.80
2018-07-28T00:31:14.184Z,22.80
2018-07-28T00:33:50.117Z,22.70
2018-07-28T00:36:25.472Z,22.70
2018-07-28T00:39:01.209Z,22.70
2018-07-28T00:41:36.548Z,22.60
2018-07-28T00:44:12.200Z,22.60
2018-07-28T00:46:47.629Z,22.60
2018-07-28T00:49:23.138Z,22.60
2018-07-28T00:51:58.496Z,22.50
2018-07-28T00:54:33.979Z,22.50
2018-07-28T00:57:09.445Z,22.50
2018-07-28T00:59:45.180Z,22.40
2018-07-28T01:04:56.472Z,22.30
2018-07-28T01:07:31.902Z,22.30
2018-07-28T01:12:42.900Z,22.30
2018-07-28T01:15:18.360Z,22.20
2018-07-28T01:17:53.587Z,22.20
2018-07-28T01:20:29.144Z,22.20
2018-07-28T01:23:04.409Z,22.10
2018-07-28T01:25:40.305Z,22.10
2018-07-28T01:28:15.508Z,22.10
2018-07-28T01:33:26.564Z,22.00
2018-07-28T01:36:02.030Z,22.10
2018-07-28T01:38:37.500Z,22.00
2018-07-28T01:41:13.020Z,22.00
2018-07-28T01:43:52.278Z,22.00
2018-07-28T01:46:27.714Z,21.90
2018-07-28T01:49:03.328Z,21.90
2018-07-28T01:51:39.005Z,21.90
2018-07-28T01:54:14.371Z,21.80
2018-07-28T01:56:49.992Z,21.90
2018-07-28T01:59:25.516Z,21.80
2018-07-28T02:02:01.092Z,21.80
2018-07-28T02:07:05.585Z,21.80
2018-07-28T02:09:41.010Z,21.70
2018-07-28T02:12:16.724Z,21.60
2018-07-28T02:14:52.461Z,21.70
2018-07-28T02:17:28.057Z,21.60
2018-07-28T02:20:03.391Z,21.60
2018-07-28T02:22:39.104Z,21.60
2018-07-28T02:25:15.440Z,21.60
2018-07-28T02:27:51.244Z,21.60
2018-07-28T02:30:26.565Z,21.50
2018-07-28T02:33:02.339Z,21.50
2018-07-28T02:35:38.264Z,21.50
2018-07-28T02:38:13.847Z,21.50
2018-07-28T02:40:49.269Z,21.50
2018-07-28T02:43:25.049Z,21.50
2018-07-28T02:46:00.584Z,21.40
2018-07-28T02:48:36.129Z,21.40
2018-07-28T02:51:11.409Z,21.40
2018-07-28T02:53:46.972Z,21.40
2018-07-28T02:56:22.291Z,21.40
2018-07-28T03:04:08.313Z,21.40
2018-07-28T03:06:43.589Z,21.40
2018-07-28T03:09:19.292Z,21.30
2018-07-28T03:11:54.754Z,21.40
2018-07-28T03:14:30.386Z,21.30
2018-07-28T03:17:05.818Z,21.30
2018-07-28T03:19:41.585Z,21.30
2018-07-28T03:22:17.057Z,21.30
2018-07-28T03:24:52.668Z,21.30
2018-07-28T03:27:28.189Z,21.20
2018-07-28T03:30:03.779Z,21.20
2018-07-28T03:35:15.177Z,21.30
2018-07-28T03:37:50.464Z,21.20
2018-07-28T03:40:25.964Z,21.20
2018-07-28T03:43:01.513Z,21.20
2018-07-28T03:45:37.468Z,21.20
2018-07-28T03:48:13.004Z,21.30
2018-07-28T03:50:48.445Z,21.30
2018-07-28T03:53:23.625Z,21.30
2018-07-28T03:56:00.209Z,21.30
2018-07-28T03:58:35.512Z,21.30
2018-07-28T04:01:11.060Z,21.30
2018-07-28T04:03:46.368Z,21.30
2018-07-28T04:06:22.264Z,21.30
2018-07-28T04:08:57.439Z,21.30
2018-07-28T04:11:33.013Z,21.40
2018-07-28T04:14:08.305Z,21.40
2018-07-28T04:19:18.808Z,21.40
2018-07-28T04:21:54.316Z,21.30
2018-07-28T04:24:29.687Z,21.30
2018-07-28T04:27:05.419Z,21.30
2018-07-28T04:29:40.849Z,21.30
2018-07-28T04:32:16.712Z,21.30
2018-07-28T04:34:52.397Z,21.30
2018-07-28T04:37:28.000Z,21.40
2018-07-28T04:40:03.485Z,21.40
2018-07-28T04:42:39.233Z,21.40
2018-07-28T04:45:14.545Z,21.50
2018-07-28T04:47:50.105Z,21.60
2018-07-28T04:50:25.279Z,21.60
2018-07-28T04:53:00.886Z,21.70
2018-07-28T04:55:36.092Z,21.70
2018-07-28T04:58:11.985Z,21.80
2018-07-28T05:00:47.469Z,21.80
2018-07-28T05:03:23.383Z,21.90
2018-07-28T05:05:58.854Z,22.00
2018-07-28T05:08:34.473Z,22.00
2018-07-28T05:11:09.965Z,22.10
2018-07-28T05:13:45.368Z,23.00
2018-07-28T05:16:20.684Z,25.00
2018-07-28T05:18:56.149Z,26.50
2018-07-28T05:21:31.348Z,27.10
2018-07-28T05:24:07.363Z,27.60
2018-07-28T05:26:42.665Z,27.90
2018-07-28T05:29:18.873Z,28.30
2018-07-28T05:31:54.380Z,28.40
2018-07-28T05:34:30.274Z,29.10
2018-07-28T05:39:40.141Z,29.60
2018-07-28T05:42:15.128Z,29.70
2018-07-28T05:44:49.905Z,30.70
2018-07-28T05:47:24.561Z,31.60
2018-07-28T05:49:59.505Z,31.30
2018-07-28T05:52:34.819Z,31.40
2018-07-28T05:55:10.544Z,31.30
2018-07-28T05:57:46.037Z,31.30
2018-07-28T06:00:21.644Z,31.00
2018-07-28T06:02:56.900Z,30.90
2018-07-28T06:05:32.972Z,31.10
2018-07-28T06:08:08.431Z,31.40
2018-07-28T06:10:44.153Z,31.60
2018-07-28T06:13:19.415Z,31.70
2018-07-28T06:15:54.932Z,32.00
2018-07-28T06:18:29.695Z,32.70
2018-07-28T06:21:05.324Z,32.40
2018-07-28T06:23:40.744Z,32.70
2018-07-28T06:26:16.193Z,32.90
2018-07-28T06:28:51.509Z,33.40
2018-07-28T06:31:27.421Z,33.90
2018-07-28T06:34:02.884Z,34.40
2018-07-28T06:36:38.382Z,34.30
2018-07-28T06:39:14.624Z,34.00
2018-07-28T06:41:50.189Z,33.50
2018-07-28T06:44:25.637Z,33.10
2018-07-28T06:47:01.286Z,32.80
2018-07-28T06:49:36.633Z,32.70
2018-07-28T06:52:12.184Z,32.60
2018-07-28T06:54:47.664Z,32.90
2018-07-28T06:57:23.379Z,33.50
2018-07-28T06:59:58.856Z,33.30
2018-07-28T07:02:34.377Z,33.90
2018-07-28T07:05:10.102Z,33.90
2018-07-28T07:07:45.804Z,33.90
2018-07-28T07:10:21.108Z,33.60
2018-07-28T07:12:56.978Z,33.00
2018-07-28T07:15:32.540Z,33.10
2018-07-28T07:18:08.486Z,33.00
2018-07-28T07:20:43.793Z,33.10
2018-07-28T07:23:19.375Z,32.80
2018-07-28T07:25:55.405Z,32.70
2018-07-28T07:28:31.181Z,33.10
2018-07-28T07:31:06.626Z,33.50
2018-07-28T07:33:42.416Z,33.50
2018-07-28T07:36:17.832Z,33.30
2018-07-28T07:38:53.585Z,33.70
2018-07-28T07:41:28.920Z,33.70
2018-07-28T07:44:04.470Z,33.40
2018-07-28T07:46:39.781Z,33.20
2018-07-28T07:49:15.356Z,33.10
2018-07-28T07:51:50.711Z,32.70
2018-07-28T07:57:01.783Z,32.60
2018-07-28T07:59:37.349Z,32.50
2018-07-28T08:02:12.652Z,32.20
2018-07-28T08:04:48.284Z,31.40
2018-07-28T08:07:23.789Z,31.10
2018-07-28T08:09:59.328Z,31.50
2018-07-28T08:12:35.206Z,30.60
2018-07-28T08:15:10.749Z,29.90
2018-07-28T08:17:46.408Z,29.30
2018-07-28T08:20:22.056Z,29.20
2018-07-28T08:22:57.225Z,29.20
2018-07-28T08:25:32.885Z,29.00
2018-07-28T08:28:08.832Z,29.20
2018-07-28T08:30:44.437Z,29.30
2018-07-28T08:33:20.104Z,29.50
2018-07-28T08:35:56.037Z,29.60
2018-07-28T08:41:06.922Z,29.30
2018-07-28T08:43:42.468Z,29.30
2018-07-28T08:46:18.032Z,29.30
2018-07-28T08:48:53.677Z,29.30
2018-07-28T08:51:29.532Z,29.60
2018-07-28T08:54:05.062Z,30.10
2018-07-28T08:56:40.820Z,30.40
2018-07-28T08:59:16.318Z,30.30
2018-07-28T09:01:51.720Z,30.10
2018-07-28T09:04:27.105Z,30.20
2018-07-28T09:07:02.715Z,30.60
2018-07-28T09:09:38.196Z,30.40
2018-07-28T09:12:13.867Z,30.30
2018-07-28T09:14:49.282Z,30.30
2018-07-28T09:17:24.800Z,30.40
2018-07-28T09:20:00.170Z,30.60
2018-07-28T09:22:35.810Z,30.80
2018-07-28T09:27:46.597Z,30.70
2018-07-28T09:30:22.013Z,30.50
2018-07-28T09:32:57.944Z,30.70
2018-07-28T09:35:33.356Z,30.60
2018-07-28T09:38:09.082Z,30.30
2018-07-28T09:40:44.421Z,30.40
2018-07-28T09:43:19.978Z,30.40
2018-07-28T09:45:55.394Z,30.40
2018-07-28T09:48:30.965Z,30.50
2018-07-28T09:51:06.560Z,30.60
2018-07-28T09:53:42.270Z,30.60
2018-07-28T09:56:17.817Z,30.80
2018-07-28T09:58:53.560Z,31.00
2018-07-28T10:04:04.196Z,31.20
2018-07-28T10:06:39.617Z,31.40
2018-07-28T10:09:16.060Z,31.30
2018-07-28T10:11:51.520Z,30.90
2018-07-28T10:14:27.169Z,31.10
2018-07-28T10:17:02.477Z,31.30
2018-07-28T10:19:38.073Z,31.20
2018-07-28T10:22:13.340Z,31.10
2018-07-28T10:24:48.828Z,31.30
2018-07-28T10:27:23.986Z,31.00
2018-07-28T10:29:59.529Z,30.70
2018-07-28T10:32:34.969Z,30.60
2018-07-28T10:35:12.145Z,30.60
2018-07-28T10:37:47.548Z,31.00
2018-07-28T10:40:23.040Z,31.40
2018-07-28T10:42:58.541Z,31.50
2018-07-28T10:45:34.039Z,31.80
2018-07-28T10:48:09.426Z,32.20
2018-07-28T10:50:45.033Z,32.50
2018-07-28T10:53:20.495Z,32.40
2018-07-28T10:55:56.125Z,32.20
2018-07-28T10:58:31.622Z,32.10
2018-07-28T11:01:07.189Z,31.70
2018-07-28T11:03:42.954Z,31.40
2018-07-28T11:06:18.612Z,31.30
2018-07-28T11:08:54.000Z,31.10
2018-07-28T11:14:04.885Z,31.10
2018-07-28T11:16:40.300Z,31.00
2018-07-28T11:19:16.118Z,31.00
2018-07-28T11:21:51.708Z,31.20
2018-07-28T11:24:27.229Z,31.20
2018-07-28T11:27:02.693Z,31.40
2018-07-28T11:29:38.121Z,31.80
2018-07-28T11:32:30.756Z,32.20
2018-07-28T11:35:23.428Z,31.80
2018-07-28T11:38:40.964Z,32.40
2018-07-28T11:41:33.621Z,33.50
2018-07-28T11:47:13.384Z,34.60
2018-07-28T11:49:49.036Z,34.80
2018-07-28T11:52:24.230Z,34.80
2018-07-28T11:54:59.829Z,34.40
2018-07-28T11:57:35.183Z,34.20
2018-07-28T12:00:11.429Z,34.40
2018-07-28T12:02:46.703Z,33.70
2018-07-28T12:05:22.120Z,33.90
2018-07-28T12:07:57.567Z,33.80
2018-07-28T12:10:33.116Z,33.70
2018-07-28T12:13:08.536Z,33.30
2018-07-28T12:18:19.375Z,33.50
2018-07-28T12:20:54.908Z,33.40
2018-07-28T12:23:30.188Z,33.40
2018-07-28T12:26:06.397Z,33.20
2018-07-28T12:28:41.804Z,33.10
2018-07-28T12:31:18.009Z,33.10
2018-07-28T12:33:53.580Z,33.10
2018-07-28T12:36:29.100Z,33.10
2018-07-28T12:39:07.208Z,33.20
2018-07-28T12:41:42.882Z,33.30
2018-07-28T12:44:18.337Z,33.50
2018-07-28T12:49:28.996Z,33.20
2018-07-28T12:52:04.425Z,33.30
2018-07-28T12:57:15.316Z,33.10
2018-07-28T12:59:50.752Z,33.30
2018-07-28T13:02:26.317Z,33.50
2018-07-28T13:05:01.709Z,33.90
2018-07-28T13:07:37.411Z,33.90
2018-07-28T13:10:12.947Z,33.40
2018-07-28T13:12:48.505Z,32.90
2018-07-28T13:15:24.069Z,32.60
2018-07-28T13:20:34.842Z,32.20
2018-07-28T13:23:10.493Z,32.20
2018-07-28T13:25:46.459Z,32.10
2018-07-28T13:30:57.153Z,32.10
2018-07-28T13:33:32.993Z,32.10
2018-07-28T13:36:08.534Z,32.10
2018-07-28T13:38:44.048Z,32.00
2018-07-28T13:43:54.776Z,30.80
2018-07-28T13:46:29.972Z,29.80
2018-07-28T13:49:05.664Z,28.30
2018-07-28T13:51:41.008Z,27.10
2018-07-28T13:54:16.554Z,26.20
2018-07-28T13:56:52.068Z,25.50
2018-07-28T13:59:27.665Z,25.00
2018-07-28T14:02:03.009Z,24.50
2018-07-28T14:04:38.532Z,24.10
2018-07-28T14:07:13.740Z,23.70
2018-07-28T14:09:49.428Z,23.40
2018-07-28T14:12:24.901Z,23.20
2018-07-28T14:15:00.508Z,23.10
2018-07-28T14:17:35.683Z,23.00
2018-07-28T14:20:11.226Z,22.80
2018-07-28T14:22:46.653Z,22.80
2018-07-28T14:25:22.208Z,22.80
2018-07-28T14:27:57.589Z,22.70
2018-07-28T14:30:33.117Z,22.60
2018-07-28T14:33:08.659Z,22.70
2018-07-28T14:35:44.389Z,22.60
2018-07-28T14:40:54.774Z,22.50
2018-07-28T14:43:30.282Z,22.40
2018-07-28T14:46:06.093Z,22.40
2018-07-28T14:48:41.325Z,22.40
2018-07-28T14:51:16.766Z,22.50
2018-07-28T14:53:52.226Z,22.60
2018-07-28T14:59:02.961Z,22.70
2018-07-28T15:01:38.644Z,22.60
2018-07-28T15:04:13.993Z,22.50
2018-07-28T15:06:49.469Z,22.40
2018-07-28T15:09:24.872Z,22.40
2018-07-28T15:12:00.317Z,22.40
2018-07-28T15:14:35.689Z,22.40
2018-07-28T15:17:11.125Z,22.40
2018-07-28T15:19:46.376Z,22.40
2018-07-28T15:22:21.894Z,22.40
2018-07-28T15:24:57.206Z,22.50
2018-07-28T15:30:08.533Z,22.60
2018-07-28T15:32:44.085Z,22.70
2018-07-28T15:35:19.584Z,22.80
2018-07-28T15:37:55.193Z,22.90
2018-07-28T15:40:30.664Z,22.90
2018-07-28T15:43:06.184Z,22.90
2018-07-28T15:45:41.643Z,22.90
2018-07-28T15:48:17.282Z,23.00
2018-07-28T15:50:52.748Z,22.90
2018-07-28T15:53:28.282Z,22.90
2018-07-28T15:56:03.916Z,22.90
2018-07-28T15:58:39.565Z,22.90
2018-07-28T16:01:14.929Z,22.90
2018-07-28T16:03:50.419Z,22.90
2018-07-28T16:06:25.892Z,22.90
2018-07-28T16:09:01.505Z,22.80
2018-07-28T16:11:36.804Z,22.80
2018-07-28T16:14:12.446Z,22.80
2018-07-28T16:16:47.913Z,22.80
2018-07-28T16:19:23.433Z,22.70
2018-07-28T16:21:58.908Z,22.60
2018-07-28T16:24:34.352Z,22.60
2018-07-28T16:27:09.694Z,22.80
2018-07-28T16:29:45.424Z,22.80
2018-07-28T16:34:56.305Z,22.90
2018-07-28T16:37:31.640Z,23.00
2018-07-28T16:40:07.475Z,22.90
2018-07-28T16:42:42.803Z,23.00
2018-07-28T16:45:18.505Z,23.00
2018-07-28T16:47:53.828Z,23.00
2018-07-28T16:50:29.384Z,22.90
2018-07-28T16:53:04.750Z,22.70
2018-07-28T16:55:40.402Z,22.70
2018-07-28T16:58:15.812Z,22.80
2018-07-28T17:00:51.348Z,22.80
2018-07-28T17:03:27.725Z,22.80
2018-07-28T17:06:03.285Z,22.80
2018-07-28T17:08:38.521Z,22.70
2018-07-28T17:11:14.661Z,22.70
2018-07-28T17:13:50.364Z,22.80
2018-07-28T17:16:25.688Z,22.90
2018-07-28T17:19:01.169Z,22.90
2018-07-28T17:21:36.580Z,22.90
2018-07-28T17:24:12.202Z,23.00
2018-07-28T17:26:47.781Z,23.10
2018-07-28T17:29:23.554Z,23.10
2018-07-28T17:31:59.177Z,23.10
2018-07-28T17:34:34.781Z,23.10
2018-07-28T17:37:10.472Z,23.10
2018-07-28T17:39:46.004Z,23.00
2018-07-28T17:42:21.597Z,22.90
2018-07-28T17:44:57.033Z,22.90
2018-07-28T17:47:32.682Z,22.90
2018-07-28T17:50:08.039Z,22.90
2018-07-28T17:52:43.704Z,22.90
2018-07-28T17:55:19.033Z,22.80
2018-07-28T17:57:55.014Z,22.80
2018-07-28T18:00:31.309Z,22.80
2018-07-28T18:03:07.020Z,22.80
2018-07-28T18:05:42.931Z,22.70
2018-07-28T18:08:18.508Z,22.60
2018-07-28T18:10:53.809Z,22.50
2018-07-28T18:13:29.389Z,22.50
2018-07-28T18:16:05.196Z,22.50
2018-07-28T18:18:41.716Z,22.50
2018-07-28T18:21:17.249Z,22.50
2018-07-28T18:23:52.930Z,22.40
2018-07-28T18:26:28.407Z,22.30
2018-07-28T18:29:03.993Z,22.30
2018-07-28T18:31:39.521Z,22.30
2018-07-28T18:34:15.004Z,22.20
2018-07-28T18:36:50.269Z,22.10
2018-07-28T18:39:25.869Z,22.20
2018-07-28T18:42:01.712Z,22.10
2018-07-28T18:44:37.286Z,22.10
2018-07-28T18:47:12.889Z,22.00
2018-07-28T18:49:49.288Z,22.00
2018-07-28T18:52:24.712Z,22.00
2018-07-28T18:55:00.359Z,22.00
2018-07-28T18:57:35.836Z,22.00
2018-07-28T19:00:11.457Z,22.00
2018-07-28T19:02:46.994Z,21.90
2018-07-28T19:05:22.610Z,22.00
2018-07-28T19:07:58.110Z,22.00
2018-07-28T19:10:33.705Z,22.00
2018-07-28T19:13:14.257Z,21.90
2018-07-28T19:15:49.823Z,21.90
2018-07-28T19:21:06.338Z,21.80
2018-07-28T19:23:46.855Z,21.90
2018-07-28T19:26:22.373Z,21.90
2018-07-28T19:29:04.015Z,22.00
2018-07-28T19:31:40.398Z,21.90
2018-07-28T19:34:15.911Z,21.90
2018-07-28T19:36:57.015Z,21.90
2018-07-28T19:39:32.349Z,21.90
2018-07-28T19:42:12.898Z,21.90
2018-07-28T19:44:48.308Z,21.80
2018-07-28T19:47:24.012Z,21.80
2018-07-28T19:49:59.795Z,21.80
2018-07-28T19:52:35.392Z,21.70
2018-07-28T19:55:12.077Z,21.70
2018-07-28T19:57:48.299Z,21.70
2018-07-28T20:02:59.048Z,21.60
2018-07-28T20:05:34.540Z,21.40
2018-07-28T20:08:10.360Z,21.40
2018-07-28T20:10:46.640Z,21.30
2018-07-28T20:13:22.271Z,21.20
2018-07-28T20:15:57.607Z,21.20
2018-07-28T20:21:08.400Z,21.10
2018-07-28T20:26:19.197Z,21.00
2018-07-28T20:28:54.692Z,20.90
2018-07-28T20:31:30.266Z,20.90
2018-07-28T20:34:05.705Z,20.80
2018-07-28T20:36:41.160Z,20.70
2018-07-28T20:39:17.450Z,20.60
2018-07-28T20:41:53.069Z,20.60
2018-07-28T20:44:28.959Z,20.50
2018-07-28T20:47:04.521Z,20.50
2018-07-28T20:49:40.326Z,20.40
2018-07-28T20:54:52.022Z,20.40
2018-07-28T20:57:27.450Z,20.30
2018-07-28T21:00:02.864Z,20.30
2018-07-28T21:02:38.856Z,20.30
2018-07-28T21:05:14.357Z,20.30
2018-07-28T21:07:49.789Z,20.20
2018-07-28T21:10:25.256Z,20.20
2018-07-28T21:13:00.975Z,20.10
2018-07-28T21:15:36.357Z,20.10
2018-07-28T21:18:11.752Z,20.10
2018-07-28T21:20:47.213Z,20.00
2018-07-28T21:23:22.516Z,20.10
2018-07-28T21:25:57.949Z,20.00
2018-07-28T21:28:33.533Z,20.00
2018-07-28T21:31:08.894Z,20.00
2018-07-28T21:33:44.646Z,20.00
2018-07-28T21:36:19.862Z,20.00
2018-07-28T21:38:55.320Z,20.00
2018-07-28T21:41:30.891Z,20.00
2018-07-28T21:44:06.520Z,20.00
2018-07-28T21:46:42.392Z,19.90
2018-07-28T21:49:17.923Z,19.90
2018-07-28T21:51:53.282Z,19.90
2018-07-28T21:54:28.916Z,19.90
2018-07-28T21:57:05.033Z,19.90
2018-07-28T21:59:40.653Z,19.80
2018-07-28T22:02:16.098Z,19.80
2018-07-28T22:04:51.516Z,19.90
2018-07-28T22:07:26.972Z,19.90
2018-07-28T22:10:02.391Z,19.90
2018-07-28T22:12:37.857Z,19.90
2018-07-28T22:15:13.313Z,19.90
2018-07-28T22:17:48.949Z,19.90
2018-07-28T22:20:24.703Z,19.80
2018-07-28T22:23:00.172Z,19.80
2018-07-28T22:25:35.529Z,19.90
2018-07-28T22:28:11.285Z,19.90
2018-07-28T22:30:46.623Z,19.90
2018-07-28T22:33:22.244Z,20.00
2018-07-28T22:35:57.940Z,20.00
2018-07-28T22:38:33.532Z,20.00
2018-07-28T22:41:08.880Z,20.10
2018-07-28T22:43:44.534Z,20.10
2018-07-28T22:46:20.089Z,20.10
2018-07-28T22:48:55.740Z,20.00
2018-07-28T22:51:31.173Z,20.00
2018-07-28T22:54:06.840Z,20.00
2018-07-28T22:59:18.120Z,19.90
2018-07-28T23:01:53.656Z,19.90
2018-07-28T23:07:04.334Z,19.80
2018-07-28T23:09:39.795Z,19.80
2018-07-28T23:12:15.013Z,19.80
2018-07-28T23:14:50.789Z,19.80
2018-07-28T23:20:01.708Z,19.70
2018-07-28T23:22:37.224Z,19.70
2018-07-28T23:25:12.941Z,19.60
2018-07-28T23:27:48.432Z,19.60
2018-07-28T23:30:23.879Z,19.60
2018-07-28T23:32:59.308Z,19.50
2018-07-28T23:35:35.004Z,19.50
2018-07-28T23:40:45.973Z,19.50
2018-07-28T23:43:21.278Z,19.40
2018-07-28T23:45:56.988Z,19.40
2018-07-28T23:48:32.400Z,19.40
2018-07-28T23:51:08.052Z,19.30
2018-07-28T23:53:43.373Z,19.30
2018-07-28T23:56:18.836Z,19.20
2018-07-28T23:58:54.056Z,19.20
